sensor_id;sensor_type;location;lat;lon;timestamp;P1;durP1;ratioP1;P2;durP2;ratioP2
47167;SDS011;32931;47.778;17.806;2023-02-04T00:01:12;17.15;;;2.63;;
47167;SDS011;32931;47.778;17.806;2023-02-04T00:03:38;10.70;;;2.30;;
47167;SDS011;32931;47.778;17.806;2023-02-04T00:06:04;9.52;;;2.13;;
47167;SDS011;32931;47.778;17.806;2023-02-04T00:08:31;8.98;;;2.22;;
47167;SDS011;32931;47.778;17.806;2023-02-04T00:10:57;13.13;;;2.55;;
47167;SDS011;32931;47.778;17.806;2023-02-04T00:13:23;11.63;;;2.20;;
47167;SDS011;32931;47.778;17.806;2023-02-04T00:15:49;15.07;;;2.78;;
47167;SDS011;32931;47.778;17.806;2023-02-04T00:18:15;11.25;;;2.30;;
47167;SDS011;32931;47.778;17.806;2023-02-04T00:20:42;13.15;;;2.22;;
47167;SDS011;32931;47.778;17.806;2023-02-04T00:23:08;13.25;;;3.08;;
47167;SDS011;32931;47.778;17.806;2023-02-04T00:25:34;11.45;;;2.83;;
47167;SDS011;32931;47.778;17.806;2023-02-04T00:28:00;14.32;;;2.75;;
47167;SDS011;32931;47.778;17.806;2023-02-04T00:30:26;15.20;;;2.38;;
47167;SDS011;32931;47.778;17.806;2023-02-04T00:32:52;18.17;;;2.97;;
47167;SDS011;32931;47.778;17.806;2023-02-04T00:35:21;15.50;;;2.22;;
47167;SDS011;32931;47.778;17.806;2023-02-04T00:37:48;7.75;;;2.13;;
47167;SDS011;32931;47.778;17.806;2023-02-04T00:40:15;11.32;;;2.53;;
47167;SDS011;32931;47.778;17.806;2023-02-04T00:42:41;14.20;;;2.80;;
47167;SDS011;32931;47.778;17.806;2023-02-04T00:45:08;15.50;;;2.33;;
47167;SDS011;32931;47.778;17.806;2023-02-04T00:47:35;12.55;;;2.53;;
47167;SDS011;32931;47.778;17.806;2023-02-04T00:50:01;16.38;;;3.50;;
47167;SDS011;32931;47.778;17.806;2023-02-04T00:52:27;12.07;;;2.95;;
47167;SDS011;32931;47.778;17.806;2023-02-04T00:54:54;15.30;;;2.60;;
47167;SDS011;32931;47.778;17.806;2023-02-04T00:57:20;12.57;;;2.20;;
47167;SDS011;32931;47.778;17.806;2023-02-04T00:59:46;16.17;;;2.63;;
47167;SDS011;32931;47.778;17.806;2023-02-04T01:02:12;13.15;;;2.72;;
47167;SDS011;32931;47.778;17.806;2023-02-04T01:04:39;13.23;;;2.42;;
47167;SDS011;32931;47.778;17.806;2023-02-04T01:07:05;14.90;;;2.53;;
47167;SDS011;32931;47.778;17.806;2023-02-04T01:09:31;9.82;;;2.10;;
47167;SDS011;32931;47.778;17.806;2023-02-04T01:11:58;15.70;;;2.67;;
47167;SDS011;32931;47.778;17.806;2023-02-04T01:14:24;13.90;;;2.58;;
47167;SDS011;32931;47.778;17.806;2023-02-04T01:16:50;13.63;;;2.80;;
47167;SDS011;32931;47.778;17.806;2023-02-04T01:19:16;16.55;;;2.90;;
47167;SDS011;32931;47.778;17.806;2023-02-04T01:21:43;13.70;;;2.55;;
47167;SDS011;32931;47.778;17.806;2023-02-04T01:24:09;12.27;;;2.53;;
47167;SDS011;32931;47.778;17.806;2023-02-04T01:26:35;15.20;;;2.60;;
47167;SDS011;32931;47.778;17.806;2023-02-04T01:29:01;14.38;;;3.08;;
47167;SDS011;32931;47.778;17.806;2023-02-04T01:31:27;9.55;;;2.35;;
47167;SDS011;32931;47.778;17.806;2023-02-04T01:33:55;10.73;;;2.30;;
47167;SDS011;32931;47.778;17.806;2023-02-04T01:36:21;12.90;;;2.60;;
47167;SDS011;32931;47.778;17.806;2023-02-04T01:38:48;19.05;;;3.03;;
47167;SDS011;32931;47.778;17.806;2023-02-04T01:41:15;15.43;;;2.80;;
47167;SDS011;32931;47.778;17.806;2023-02-04T01:43:42;12.20;;;2.42;;
47167;SDS011;32931;47.778;17.806;2023-02-04T01:46:08;12.15;;;2.75;;
47167;SDS011;32931;47.778;17.806;2023-02-04T01:48:34;12.13;;;2.38;;
47167;SDS011;32931;47.778;17.806;2023-02-04T01:51:02;17.05;;;2.88;;
47167;SDS011;32931;47.778;17.806;2023-02-04T01:53:31;15.88;;;3.17;;
47167;SDS011;32931;47.778;17.806;2023-02-04T01:55:59;9.48;;;2.30;;
47167;SDS011;32931;47.778;17.806;2023-02-04T01:58:26;17.05;;;2.78;;
47167;SDS011;32931;47.778;17.806;2023-02-04T02:00:55;11.00;;;2.20;;
47167;SDS011;32931;47.778;17.806;2023-02-04T02:03:21;12.38;;;2.60;;
47167;SDS011;32931;47.778;17.806;2023-02-04T02:05:48;17.25;;;2.60;;
47167;SDS011;32931;47.778;17.806;2023-02-04T02:08:16;14.45;;;2.47;;
47167;SDS011;32931;47.778;17.806;2023-02-04T02:10:44;8.95;;;2.20;;
47167;SDS011;32931;47.778;17.806;2023-02-04T02:13:14;14.93;;;2.67;;
47167;SDS011;32931;47.778;17.806;2023-02-04T02:15:43;15.07;;;2.40;;
47167;SDS011;32931;47.778;17.806;2023-02-04T02:18:09;20.33;;;2.80;;
47167;SDS011;32931;47.778;17.806;2023-02-04T02:20:36;13.70;;;2.42;;
47167;SDS011;32931;47.778;17.806;2023-02-04T02:26:10;14.45;;;2.45;;
47167;SDS011;32931;47.778;17.806;2023-02-04T02:28:37;12.10;;;2.35;;
47167;SDS011;32931;47.778;17.806;2023-02-04T02:31:04;15.05;;;2.85;;
47167;SDS011;32931;47.778;17.806;2023-02-04T02:33:30;10.15;;;1.85;;
47167;SDS011;32931;47.778;17.806;2023-02-04T02:35:56;16.05;;;2.50;;
47167;SDS011;32931;47.778;17.806;2023-02-04T02:38:22;11.82;;;1.80;;
47167;SDS011;32931;47.778;17.806;2023-02-04T02:40:49;11.05;;;2.03;;
47167;SDS011;32931;47.778;17.806;2023-02-04T02:43:19;16.40;;;2.05;;
47167;SDS011;32931;47.778;17.806;2023-02-04T02:45:47;8.70;;;1.70;;
47167;SDS011;32931;47.778;17.806;2023-02-04T02:48:15;16.20;;;2.40;;
47167;SDS011;32931;47.778;17.806;2023-02-04T05:14:10;1.33;;;0.43;;
47167;SDS011;32931;47.778;17.806;2023-02-04T05:16:36;1.75;;;0.50;;
47167;SDS011;32931;47.778;17.806;2023-02-04T05:19:02;1.27;;;0.45;;
47167;SDS011;32931;47.778;17.806;2023-02-04T05:21:29;1.92;;;0.50;;
47167;SDS011;32931;47.778;17.806;2023-02-04T05:23:55;0.75;;;0.30;;
47167;SDS011;32931;47.778;17.806;2023-02-04T05:26:21;1.08;;;0.40;;
47167;SDS011;32931;47.778;17.806;2023-02-04T05:28:47;1.40;;;0.40;;
47167;SDS011;32931;47.778;17.806;2023-02-04T05:31:13;2.35;;;0.63;;
47167;SDS011;32931;47.778;17.806;2023-02-04T05:33:39;1.30;;;0.60;;
47167;SDS011;32931;47.778;17.806;2023-02-04T05:36:05;0.55;;;0.50;;
47167;SDS011;32931;47.778;17.806;2023-02-04T05:38:31;1.50;;;0.50;;
47167;SDS011;32931;47.778;17.806;2023-02-04T05:40:58;0.60;;;0.50;;
47167;SDS011;32931;47.778;17.806;2023-02-04T05:43:24;1.15;;;0.50;;
47167;SDS011;32931;47.778;17.806;2023-02-04T05:45:50;1.50;;;0.57;;
47167;SDS011;32931;47.778;17.806;2023-02-04T05:48:16;0.82;;;0.43;;
47167;SDS011;32931;47.778;17.806;2023-02-04T05:50:42;1.25;;;0.50;;
47167;SDS011;32931;47.778;17.806;2023-02-04T05:53:09;1.85;;;0.70;;
47167;SDS011;32931;47.778;17.806;2023-02-04T05:55:35;1.33;;;0.57;;
47167;SDS011;32931;47.778;17.806;2023-02-04T05:58:01;0.63;;;0.43;;
47167;SDS011;32931;47.778;17.806;2023-02-04T06:00:27;1.08;;;0.60;;
47167;SDS011;32931;47.778;17.806;2023-02-04T06:02:53;1.38;;;0.50;;
47167;SDS011;32931;47.778;17.806;2023-02-04T06:05:19;1.55;;;0.75;;
47167;SDS011;32931;47.778;17.806;2023-02-04T06:07:47;3.47;;;0.60;;
47167;SDS011;32931;47.778;17.806;2023-02-04T06:10:14;1.25;;;0.40;;
47167;SDS011;32931;47.778;17.806;2023-02-04T06:12:40;6.75;;;1.33;;
47167;SDS011;32931;47.778;17.806;2023-02-04T06:15:07;0.90;;;0.60;;
47167;SDS011;32931;47.778;17.806;2023-02-04T06:17:34;1.25;;;0.75;;
47167;SDS011;32931;47.778;17.806;2023-02-04T06:20:00;1.63;;;0.70;;
47167;SDS011;32931;47.778;17.806;2023-02-04T06:22:26;1.70;;;0.80;;
47167;SDS011;32931;47.778;17.806;2023-02-04T06:24:52;2.55;;;0.90;;
47167;SDS011;32931;47.778;17.806;2023-02-04T06:27:18;1.85;;;0.90;;
47167;SDS011;32931;47.778;17.806;2023-02-04T06:29:50;2.03;;;1.00;;
47167;SDS011;32931;47.778;17.806;2023-02-04T06:32:18;4.32;;;1.17;;
47167;SDS011;32931;47.778;17.806;2023-02-04T06:34:45;1.45;;;1.00;;
47167;SDS011;32931;47.778;17.806;2023-02-04T06:37:11;3.10;;;1.35;;
47167;SDS011;32931;47.778;17.806;2023-02-04T06:39:38;5.63;;;1.58;;
47167;SDS011;32931;47.778;17.806;2023-02-04T06:42:04;6.18;;;1.80;;
47167;SDS011;32931;47.778;17.806;2023-02-04T06:44:30;7.28;;;2.50;;
47167;SDS011;32931;47.778;17.806;2023-02-04T06:46:57;4.35;;;2.28;;
47167;SDS011;32931;47.778;17.806;2023-02-04T06:49:23;3.70;;;2.20;;
47167;SDS011;32931;47.778;17.806;2023-02-04T06:51:51;4.43;;;2.75;;
47167;SDS011;32931;47.778;17.806;2023-02-04T06:54:19;4.82;;;2.90;;
47167;SDS011;32931;47.778;17.806;2023-02-04T06:56:46;5.65;;;3.15;;
47167;SDS011;32931;47.778;17.806;2023-02-04T06:59:12;5.13;;;2.72;;
47167;SDS011;32931;47.778;17.806;2023-02-04T07:01:38;5.28;;;3.20;;
47167;SDS011;32931;47.778;17.806;2023-02-04T07:04:04;12.05;;;3.72;;
47167;SDS011;32931;47.778;17.806;2023-02-04T07:06:30;6.88;;;3.60;;
47167;SDS011;32931;47.778;17.806;2023-02-04T07:08:57;5.70;;;3.70;;
47167;SDS011;32931;47.778;17.806;2023-02-04T07:11:23;5.70;;;3.47;;
47167;SDS011;32931;47.778;17.806;2023-02-04T07:13:49;5.85;;;3.85;;
47167;SDS011;32931;47.778;17.806;2023-02-04T07:16:15;8.65;;;4.10;;
47167;SDS011;32931;47.778;17.806;2023-02-04T07:18:41;6.20;;;3.67;;
47167;SDS011;32931;47.778;17.806;2023-02-04T07:21:07;8.90;;;3.58;;
47167;SDS011;32931;47.778;17.806;2023-02-04T07:23:33;8.00;;;3.67;;
47167;SDS011;32931;47.778;17.806;2023-02-04T07:26:00;8.02;;;3.97;;
47167;SDS011;32931;47.778;17.806;2023-02-04T07:28:26;6.38;;;3.78;;
47167;SDS011;32931;47.778;17.806;2023-02-04T07:30:52;7.30;;;3.63;;
47167;SDS011;32931;47.778;17.806;2023-02-04T07:33:19;6.53;;;3.92;;
47167;SDS011;32931;47.778;17.806;2023-02-04T07:35:45;8.55;;;4.10;;
47167;SDS011;32931;47.778;17.806;2023-02-04T07:38:11;5.63;;;3.60;;
47167;SDS011;32931;47.778;17.806;2023-02-04T07:40:37;4.82;;;3.03;;
47167;SDS011;32931;47.778;17.806;2023-02-04T07:43:04;6.00;;;3.53;;
47167;SDS011;32931;47.778;17.806;2023-02-04T07:45:30;6.47;;;3.88;;
47167;SDS011;32931;47.778;17.806;2023-02-04T07:47:56;5.18;;;3.38;;
47167;SDS011;32931;47.778;17.806;2023-02-04T07:50:22;7.63;;;3.72;;
47167;SDS011;32931;47.778;17.806;2023-02-04T07:52:48;6.88;;;3.50;;
47167;SDS011;32931;47.778;17.806;2023-02-04T07:55:14;6.05;;;3.38;;
47167;SDS011;32931;47.778;17.806;2023-02-04T07:57:40;4.82;;;2.90;;
47167;SDS011;32931;47.778;17.806;2023-02-04T08:00:07;8.13;;;4.05;;
47167;SDS011;32931;47.778;17.806;2023-02-04T08:02:34;7.03;;;3.10;;
47167;SDS011;32931;47.778;17.806;2023-02-04T08:05:00;6.07;;;3.08;;
47167;SDS011;32931;47.778;17.806;2023-02-04T08:07:26;7.82;;;3.05;;
47167;SDS011;32931;47.778;17.806;2023-02-04T08:09:52;5.13;;;2.85;;
47167;SDS011;32931;47.778;17.806;2023-02-04T08:12:18;6.55;;;2.90;;
47167;SDS011;32931;47.778;17.806;2023-02-04T08:14:45;4.82;;;3.13;;
47167;SDS011;32931;47.778;17.806;2023-02-04T08:17:11;9.40;;;3.38;;
47167;SDS011;32931;47.778;17.806;2023-02-04T08:19:37;4.65;;;2.60;;
47167;SDS011;32931;47.778;17.806;2023-02-04T08:22:03;8.25;;;3.40;;
47167;SDS011;32931;47.778;17.806;2023-02-04T08:24:29;9.38;;;3.17;;
47167;SDS011;32931;47.778;17.806;2023-02-04T08:26:55;4.82;;;2.65;;
47167;SDS011;32931;47.778;17.806;2023-02-04T08:29:23;6.22;;;2.85;;
47167;SDS011;32931;47.778;17.806;2023-02-04T08:31:52;5.38;;;2.50;;
47167;SDS011;32931;47.778;17.806;2023-02-04T08:34:18;6.28;;;2.70;;
47167;SDS011;32931;47.778;17.806;2023-02-04T08:36:44;4.95;;;2.55;;
47167;SDS011;32931;47.778;17.806;2023-02-04T08:39:11;4.85;;;2.70;;
47167;SDS011;32931;47.778;17.806;2023-02-04T08:41:37;4.82;;;2.42;;
47167;SDS011;32931;47.778;17.806;2023-02-04T08:44:04;5.85;;;2.33;;
47167;SDS011;32931;47.778;17.806;2023-02-04T08:46:30;5.60;;;2.45;;
47167;SDS011;32931;47.778;17.806;2023-02-04T08:48:56;4.43;;;2.25;;
47167;SDS011;32931;47.778;17.806;2023-02-04T08:51:22;3.50;;;2.20;;
47167;SDS011;32931;47.778;17.806;2023-02-04T08:53:49;4.93;;;2.50;;
47167;SDS011;32931;47.778;17.806;2023-02-04T08:56:15;3.70;;;2.00;;
47167;SDS011;32931;47.778;17.806;2023-02-04T08:58:43;4.70;;;2.10;;
47167;SDS011;32931;47.778;17.806;2023-02-04T09:01:09;5.10;;;2.20;;
47167;SDS011;32931;47.778;17.806;2023-02-04T09:03:36;4.38;;;1.85;;
47167;SDS011;32931;47.778;17.806;2023-02-04T09:06:03;3.25;;;1.75;;
47167;SDS011;32931;47.778;17.806;2023-02-04T09:08:30;6.57;;;2.08;;
47167;SDS011;32931;47.778;17.806;2023-02-04T09:10:57;3.30;;;1.85;;
47167;SDS011;32931;47.778;17.806;2023-02-04T09:13:23;4.22;;;2.05;;
47167;SDS011;32931;47.778;17.806;2023-02-04T09:15:49;6.43;;;1.90;;
47167;SDS011;32931;47.778;17.806;2023-02-04T09:18:17;3.22;;;1.95;;
47167;SDS011;32931;47.778;17.806;2023-02-04T09:20:49;5.18;;;1.92;;
47167;SDS011;32931;47.778;17.806;2023-02-04T09:23:16;4.32;;;2.08;;
47167;SDS011;32931;47.778;17.806;2023-02-04T09:25:44;3.53;;;1.75;;
47167;SDS011;32931;47.778;17.806;2023-02-04T09:28:11;2.53;;;1.60;;
47167;SDS011;32931;47.778;17.806;2023-02-04T09:30:38;2.55;;;1.50;;
47167;SDS011;32931;47.778;17.806;2023-02-04T09:33:05;5.45;;;1.65;;
47167;SDS011;32931;47.778;17.806;2023-02-04T09:35:32;6.43;;;1.80;;
47167;SDS011;32931;47.778;17.806;2023-02-04T09:37:58;3.63;;;2.03;;
47167;SDS011;32931;47.778;17.806;2023-02-04T09:40:25;4.13;;;2.17;;
47167;SDS011;32931;47.778;17.806;2023-02-04T09:42:53;3.75;;;1.80;;
47167;SDS011;32931;47.778;17.806;2023-02-04T09:45:22;7.32;;;2.03;;
47167;SDS011;32931;47.778;17.806;2023-02-04T09:47:52;3.83;;;1.95;;
47167;SDS011;32931;47.778;17.806;2023-02-04T09:50:21;6.10;;;2.10;;
47167;SDS011;32931;47.778;17.806;2023-02-04T09:52:51;4.28;;;2.08;;
47167;SDS011;32931;47.778;17.806;2023-02-04T09:55:20;4.47;;;2.10;;
47167;SDS011;32931;47.778;17.806;2023-02-04T09:57:51;2.88;;;1.95;;
47167;SDS011;32931;47.778;17.806;2023-02-04T10:00:21;3.55;;;2.33;;
47167;SDS011;32931;47.778;17.806;2023-02-04T10:02:49;3.60;;;2.10;;
47167;SDS011;32931;47.778;17.806;2023-02-04T10:05:20;6.38;;;2.55;;
47167;SDS011;32931;47.778;17.806;2023-02-04T10:07:52;6.28;;;2.72;;
47167;SDS011;32931;47.778;17.806;2023-02-04T10:10:19;5.20;;;2.53;;
47167;SDS011;32931;47.778;17.806;2023-02-04T10:12:50;6.05;;;2.53;;
47167;SDS011;32931;47.778;17.806;2023-02-04T10:15:21;6.03;;;2.80;;
47167;SDS011;32931;47.778;17.806;2023-02-04T10:17:50;4.82;;;2.67;;
47167;SDS011;32931;47.778;17.806;2023-02-04T10:20:20;4.55;;;2.58;;
47167;SDS011;32931;47.778;17.806;2023-02-04T10:22:48;6.25;;;2.67;;
47167;SDS011;32931;47.778;17.806;2023-02-04T10:25:18;4.47;;;2.55;;
47167;SDS011;32931;47.778;17.806;2023-02-04T10:27:53;4.85;;;2.60;;
47167;SDS011;32931;47.778;17.806;2023-02-04T10:30:22;4.82;;;2.67;;
47167;SDS011;32931;47.778;17.806;2023-02-04T10:32:50;5.05;;;3.50;;
47167;SDS011;32931;47.778;17.806;2023-02-04T10:35:18;4.80;;;2.60;;
47167;SDS011;32931;47.778;17.806;2023-02-04T10:37:46;7.03;;;3.10;;
47167;SDS011;32931;47.778;17.806;2023-02-04T10:43:15;6.70;;;2.80;;
47167;SDS011;32931;47.778;17.806;2023-02-04T10:45:43;4.93;;;2.55;;
47167;SDS011;32931;47.778;17.806;2023-02-04T10:48:15;5.93;;;2.58;;
47167;SDS011;32931;47.778;17.806;2023-02-04T10:50:42;39.10;;;3.63;;
47167;SDS011;32931;47.778;17.806;2023-02-04T10:53:09;7.63;;;3.00;;
47167;SDS011;32931;47.778;17.806;2023-02-04T10:55:55;3.45;;;2.38;;
47167;SDS011;32931;47.778;17.806;2023-02-04T10:58:23;6.78;;;2.83;;
47167;SDS011;32931;47.778;17.806;2023-02-04T11:00:52;4.65;;;2.88;;
47167;SDS011;32931;47.778;17.806;2023-02-04T11:03:22;4.20;;;2.80;;
47167;SDS011;32931;47.778;17.806;2023-02-04T11:05:51;5.68;;;3.30;;
47167;SDS011;32931;47.778;17.806;2023-02-04T11:11:33;9.27;;;3.30;;
47167;SDS011;32931;47.778;17.806;2023-02-04T11:23:47;9.10;;;3.70;;
47167;SDS011;32931;47.778;17.806;2023-02-04T11:26:18;5.60;;;3.63;;
47167;SDS011;32931;47.778;17.806;2023-02-04T11:42:00;6.68;;;3.85;;
47167;SDS011;32931;47.778;17.806;2023-02-04T11:44:27;6.25;;;3.65;;
47167;SDS011;32931;47.778;17.806;2023-02-04T11:46:53;7.18;;;3.45;;
47167;SDS011;32931;47.778;17.806;2023-02-04T11:49:21;5.03;;;3.35;;
47167;SDS011;32931;47.778;17.806;2023-02-04T11:51:49;4.35;;;2.67;;
47167;SDS011;32931;47.778;17.806;2023-02-04T11:54:16;5.97;;;3.28;;
47167;SDS011;32931;47.778;17.806;2023-02-04T11:56:46;5.50;;;3.22;;
47167;SDS011;32931;47.778;17.806;2023-02-04T11:59:17;5.45;;;3.03;;
47167;SDS011;32931;47.778;17.806;2023-02-04T12:01:45;5.03;;;3.20;;
47167;SDS011;32931;47.778;17.806;2023-02-04T12:04:20;5.53;;;3.33;;
47167;SDS011;32931;47.778;17.806;2023-02-04T12:06:56;6.07;;;3.13;;
47167;SDS011;32931;47.778;17.806;2023-02-04T12:09:28;4.43;;;3.08;;
47167;SDS011;32931;47.778;17.806;2023-02-04T12:11:56;6.88;;;3.00;;
47167;SDS011;32931;47.778;17.806;2023-02-04T12:14:31;6.78;;;3.35;;
47167;SDS011;32931;47.778;17.806;2023-02-04T12:16:59;5.30;;;2.60;;
47167;SDS011;32931;47.778;17.806;2023-02-04T12:19:26;5.80;;;2.80;;
47167;SDS011;32931;47.778;17.806;2023-02-04T12:21:52;3.75;;;2.65;;
47167;SDS011;32931;47.778;17.806;2023-02-04T12:24:20;5.07;;;3.10;;
47167;SDS011;32931;47.778;17.806;2023-02-04T12:26:46;5.13;;;2.75;;
47167;SDS011;32931;47.778;17.806;2023-02-04T12:29:12;5.63;;;3.08;;
47167;SDS011;32931;47.778;17.806;2023-02-04T12:31:38;5.20;;;2.90;;
47167;SDS011;32931;47.778;17.806;2023-02-04T12:34:04;4.82;;;2.75;;
47167;SDS011;32931;47.778;17.806;2023-02-04T12:36:30;3.55;;;2.55;;
47167;SDS011;32931;47.778;17.806;2023-02-04T12:38:57;5.13;;;2.78;;
47167;SDS011;32931;47.778;17.806;2023-02-04T12:41:23;3.40;;;2.03;;
47167;SDS011;32931;47.778;17.806;2023-02-04T12:43:50;3.83;;;2.30;;
47167;SDS011;32931;47.778;17.806;2023-02-04T12:46:16;3.63;;;2.38;;
47167;SDS011;32931;47.778;17.806;2023-02-04T12:48:43;5.15;;;2.63;;
47167;SDS011;32931;47.778;17.806;2023-02-04T12:51:09;6.07;;;2.78;;
47167;SDS011;32931;47.778;17.806;2023-02-04T12:53:35;4.35;;;2.50;;
47167;SDS011;32931;47.778;17.806;2023-02-04T12:56:01;4.45;;;2.88;;
47167;SDS011;32931;47.778;17.806;2023-02-04T12:58:27;6.00;;;2.90;;
47167;SDS011;32931;47.778;17.806;2023-02-04T13:00:53;5.70;;;2.63;;
47167;SDS011;32931;47.778;17.806;2023-02-04T13:03:20;7.75;;;2.58;;
47167;SDS011;32931;47.778;17.806;2023-02-04T13:05:48;6.78;;;2.50;;
47167;SDS011;32931;47.778;17.806;2023-02-04T13:08:14;7.85;;;3.03;;
47167;SDS011;32931;47.778;17.806;2023-02-04T13:10:40;5.25;;;2.95;;
47167;SDS011;32931;47.778;17.806;2023-02-04T13:13:06;4.13;;;2.63;;
47167;SDS011;32931;47.778;17.806;2023-02-04T13:15:32;5.47;;;2.72;;
47167;SDS011;32931;47.778;17.806;2023-02-04T13:17:58;4.07;;;2.72;;
47167;SDS011;32931;47.778;17.806;2023-02-04T13:20:25;4.38;;;2.50;;
47167;SDS011;32931;47.778;17.806;2023-02-04T13:22:51;5.03;;;2.60;;
47167;SDS011;32931;47.778;17.806;2023-02-04T13:25:17;6.95;;;2.90;;
47167;SDS011;32931;47.778;17.806;2023-02-04T13:27:43;6.13;;;2.85;;
47167;SDS011;32931;47.778;17.806;2023-02-04T13:30:09;5.32;;;2.90;;
47167;SDS011;32931;47.778;17.806;2023-02-04T13:32:39;6.78;;;2.90;;
47167;SDS011;32931;47.778;17.806;2023-02-04T13:35:06;6.55;;;2.72;;
47167;SDS011;32931;47.778;17.806;2023-02-04T13:37:32;4.43;;;2.80;;
47167;SDS011;32931;47.778;17.806;2023-02-04T13:39:58;5.07;;;3.20;;
47167;SDS011;32931;47.778;17.806;2023-02-04T13:42:25;4.85;;;2.80;;
47167;SDS011;32931;47.778;17.806;2023-02-04T13:44:51;5.63;;;2.97;;
47167;SDS011;32931;47.778;17.806;2023-02-04T13:47:19;4.90;;;2.80;;
47167;SDS011;32931;47.778;17.806;2023-02-04T13:49:45;5.47;;;2.85;;
47167;SDS011;32931;47.778;17.806;2023-02-04T13:52:12;5.75;;;3.10;;
47167;SDS011;32931;47.778;17.806;2023-02-04T13:54:38;7.88;;;3.05;;
47167;SDS011;32931;47.778;17.806;2023-02-04T13:57:04;4.03;;;2.30;;
47167;SDS011;32931;47.778;17.806;2023-02-04T13:59:31;12.25;;;2.22;;
47167;SDS011;32931;47.778;17.806;2023-02-04T14:01:57;4.63;;;2.47;;
47167;SDS011;32931;47.778;17.806;2023-02-04T14:04:23;5.75;;;2.47;;
47167;SDS011;32931;47.778;17.806;2023-02-04T14:06:51;6.07;;;2.47;;
47167;SDS011;32931;47.778;17.806;2023-02-04T14:09:19;6.03;;;2.45;;
47167;SDS011;32931;47.778;17.806;2023-02-04T14:11:46;18.98;;;3.03;;
47167;SDS011;32931;47.778;17.806;2023-02-04T14:14:12;7.85;;;2.25;;
47167;SDS011;32931;47.778;17.806;2023-02-04T14:16:39;4.68;;;2.22;;
47167;SDS011;32931;47.778;17.806;2023-02-04T14:19:05;3.75;;;2.17;;
47167;SDS011;32931;47.778;17.806;2023-02-04T14:21:32;3.35;;;1.85;;
47167;SDS011;32931;47.778;17.806;2023-02-04T14:23:58;4.80;;;2.03;;
47167;SDS011;32931;47.778;17.806;2023-02-04T14:26:25;5.15;;;2.20;;
47167;SDS011;32931;47.778;17.806;2023-02-04T14:28:51;4.20;;;1.85;;
47167;SDS011;32931;47.778;17.806;2023-02-04T14:31:18;5.35;;;2.00;;
47167;SDS011;32931;47.778;17.806;2023-02-04T14:33:44;3.75;;;1.67;;
47167;SDS011;32931;47.778;17.806;2023-02-04T14:36:10;4.22;;;2.05;;
47167;SDS011;32931;47.778;17.806;2023-02-04T14:38:36;4.20;;;2.13;;
47167;SDS011;32931;47.778;17.806;2023-02-04T14:41:04;4.78;;;1.73;;
47167;SDS011;32931;47.778;17.806;2023-02-04T14:43:30;4.97;;;1.70;;
47167;SDS011;32931;47.778;17.806;2023-02-04T14:46:04;3.35;;;1.58;;
47167;SDS011;32931;47.778;17.806;2023-02-04T14:48:30;3.88;;;2.00;;
47167;SDS011;32931;47.778;17.806;2023-02-04T14:50:56;4.43;;;1.88;;
47167;SDS011;32931;47.778;17.806;2023-02-04T14:53:22;2.97;;;1.52;;
47167;SDS011;32931;47.778;17.806;2023-02-04T14:55:48;9.13;;;1.80;;
47167;SDS011;32931;47.778;17.806;2023-02-04T14:58:14;5.60;;;1.52;;
47167;SDS011;32931;47.778;17.806;2023-02-04T15:00:41;3.53;;;1.30;;
47167;SDS011;32931;47.778;17.806;2023-02-04T15:03:07;4.25;;;1.33;;
47167;SDS011;32931;47.778;17.806;2023-02-04T15:05:33;2.58;;;1.30;;
47167;SDS011;32931;47.778;17.806;2023-02-04T15:07:59;3.13;;;1.20;;
47167;SDS011;32931;47.778;17.806;2023-02-04T15:10:25;4.95;;;1.45;;
47167;SDS011;32931;47.778;17.806;2023-02-04T15:12:51;5.32;;;1.33;;
47167;SDS011;32931;47.778;17.806;2023-02-04T15:15:20;3.05;;;0.98;;
47167;SDS011;32931;47.778;17.806;2023-02-04T15:17:46;2.95;;;1.05;;
47167;SDS011;32931;47.778;17.806;2023-02-04T15:20:15;3.47;;;1.38;;
47167;SDS011;32931;47.778;17.806;2023-02-04T15:22:41;3.42;;;1.23;;
47167;SDS011;32931;47.778;17.806;2023-02-04T15:25:08;3.88;;;1.30;;
47167;SDS011;32931;47.778;17.806;2023-02-04T15:27:35;2.63;;;1.20;;
47167;SDS011;32931;47.778;17.806;2023-02-04T15:30:02;2.40;;;1.17;;
47167;SDS011;32931;47.778;17.806;2023-02-04T15:32:28;2.50;;;1.23;;
47167;SDS011;32931;47.778;17.806;2023-02-04T15:34:54;3.03;;;1.10;;
47167;SDS011;32931;47.778;17.806;2023-02-04T15:37:20;3.97;;;1.27;;
47167;SDS011;32931;47.778;17.806;2023-02-04T15:39:47;1.73;;;0.93;;
47167;SDS011;32931;47.778;17.806;2023-02-04T15:42:13;2.25;;;1.05;;
47167;SDS011;32931;47.778;17.806;2023-02-04T15:44:39;4.38;;;1.45;;
47167;SDS011;32931;47.778;17.806;2023-02-04T15:47:05;2.97;;;1.25;;
47167;SDS011;32931;47.778;17.806;2023-02-04T15:49:31;3.08;;;1.55;;
47167;SDS011;32931;47.778;17.806;2023-02-04T15:51:59;2.45;;;1.33;;
47167;SDS011;32931;47.778;17.806;2023-02-04T15:54:26;2.15;;;1.10;;
47167;SDS011;32931;47.778;17.806;2023-02-04T15:56:53;4.18;;;1.30;;
47167;SDS011;32931;47.778;17.806;2023-02-04T15:59:19;2.38;;;1.20;;
47167;SDS011;32931;47.778;17.806;2023-02-04T16:01:45;3.55;;;1.10;;
47167;SDS011;32931;47.778;17.806;2023-02-04T16:04:11;6.32;;;1.20;;
47167;SDS011;32931;47.778;17.806;2023-02-04T16:06:37;2.58;;;1.40;;
47167;SDS011;32931;47.778;17.806;2023-02-04T16:09:03;2.55;;;1.13;;
47167;SDS011;32931;47.778;17.806;2023-02-04T16:11:30;4.43;;;1.30;;
47167;SDS011;32931;47.778;17.806;2023-02-04T16:13:57;2.83;;;1.17;;
47167;SDS011;32931;47.778;17.806;2023-02-04T16:16:23;2.20;;;1.15;;
47167;SDS011;32931;47.778;17.806;2023-02-04T16:18:49;2.22;;;1.30;;
47167;SDS011;32931;47.778;17.806;2023-02-04T16:21:15;2.30;;;1.25;;
47167;SDS011;32931;47.778;17.806;2023-02-04T16:23:42;2.85;;;1.40;;
47167;SDS011;32931;47.778;17.806;2023-02-04T16:26:08;2.80;;;1.30;;
47167;SDS011;32931;47.778;17.806;2023-02-04T16:28:34;3.53;;;1.35;;
47167;SDS011;32931;47.778;17.806;2023-02-04T16:31:00;3.42;;;1.40;;
47167;SDS011;32931;47.778;17.806;2023-02-04T16:33:26;2.97;;;1.48;;
47167;SDS011;32931;47.778;17.806;2023-02-04T16:38:25;6.17;;;1.63;;
47167;SDS011;32931;47.778;17.806;2023-02-04T16:40:52;3.50;;;1.67;;
47167;SDS011;32931;47.778;17.806;2023-02-04T16:43:18;2.60;;;1.45;;
47167;SDS011;32931;47.778;17.806;2023-02-04T16:45:44;6.53;;;1.70;;
47167;SDS011;32931;47.778;17.806;2023-02-04T16:48:10;3.03;;;1.67;;
47167;SDS011;32931;47.778;17.806;2023-02-04T16:50:36;3.10;;;1.70;;
47167;SDS011;32931;47.778;17.806;2023-02-04T16:53:03;6.40;;;2.00;;
47167;SDS011;32931;47.778;17.806;2023-02-04T16:55:29;7.22;;;1.60;;
47167;SDS011;32931;47.778;17.806;2023-02-04T16:57:55;3.83;;;1.85;;
47167;SDS011;32931;47.778;17.806;2023-02-04T17:00:21;6.45;;;2.50;;
47167;SDS011;32931;47.778;17.806;2023-02-04T17:02:47;3.35;;;1.65;;
47167;SDS011;32931;47.778;17.806;2023-02-04T17:05:14;3.88;;;1.75;;
47167;SDS011;32931;47.778;17.806;2023-02-04T17:07:40;7.05;;;2.03;;
47167;SDS011;32931;47.778;17.806;2023-02-04T17:10:06;5.75;;;2.30;;
47167;SDS011;32931;47.778;17.806;2023-02-04T17:12:32;4.43;;;2.13;;
47167;SDS011;32931;47.778;17.806;2023-02-04T17:14:58;3.95;;;2.00;;
47167;SDS011;32931;47.778;17.806;2023-02-04T17:17:25;4.07;;;1.80;;
47167;SDS011;32931;47.778;17.806;2023-02-04T17:19:51;4.75;;;1.50;;
47167;SDS011;32931;47.778;17.806;2023-02-04T17:22:17;4.72;;;1.80;;
47167;SDS011;32931;47.778;17.806;2023-02-04T17:24:43;4.25;;;1.58;;
47167;SDS011;32931;47.778;17.806;2023-02-04T17:27:09;3.50;;;1.45;;
47167;SDS011;32931;47.778;17.806;2023-02-04T17:29:35;2.97;;;1.25;;